sensor_id;sensor_type;location;lat;lon;timestamp;pressure;altitude;pressure_sealevel;temperature;humidity
67109;BME280;54027;50.786;7.058;2023-04-29T00:00:05;100832.06;;;13.31;90.81
67109;BME280;54027;50.786;7.058;2023-04-29T00:02:31;100834.66;;;13.31;90.86
67109;BME280;54027;50.786;7.058;2023-04-29T00:04:57;100828.59;;;13.30;90.58
67109;BME280;54027;50.786;7.058;2023-04-29T00:07:22;100834.66;;;13.31;90.00
67109;BME280;54027;50.786;7.058;2023-04-29T00:09:48;100838.13;;;13.30;89.78
67109;BME280;54027;50.786;7.058;2023-04-29T00:12:13;100831.25;;;13.29;89.26
67109;BME280;54027;50.786;7.058;2023-04-29T00:14:39;100841.66;;;13.27;89.48
67109;BME280;54027;50.786;7.058;2023-04-29T00:17:04;100836.44;;;13.27;88.81
67109;BME280;54027;50.786;7.058;2023-04-29T00:19:29;100838.19;;;13.27;88.25
67109;BME280;54027;50.786;7.058;2023-04-29T00:21:55;100834.78;;;13.25;87.84
67109;BME280;54027;50.786;7.058;2023-04-29T00:24:20;100847.78;;;13.23;87.54
67109;BME280;54027;50.786;7.058;2023-04-29T00:26:46;100845.19;;;13.23;86.95
67109;BME280;54027;50.786;7.058;2023-04-29T00:29:11;100845.19;;;13.23;86.57
67109;BME280;54027;50.786;7.058;2023-04-29T00:31:37;100849.53;;;13.21;86.55
67109;BME280;54027;50.786;7.058;2023-04-29T00:34:02;100853.03;;;13.20;86.46
67109;BME280;54027;50.786;7.058;2023-04-29T00:36:28;100847.84;;;13.20;86.42
67109;BME280;54027;50.786;7.058;2023-04-29T00:38:53;100857.38;;;13.20;86.77
67109;BME280;54027;50.786;7.058;2023-04-29T00:41:19;100861.75;;;13.18;86.65
67109;BME280;54027;50.786;7.058;2023-04-29T00:43:45;100863.47;;;13.17;86.29
67109;BME280;54027;50.786;7.058;2023-04-29T00:46:10;100867.81;;;13.15;85.37
67109;BME280;54027;50.786;7.058;2023-04-29T00:48:36;100862.63;;;13.15;84.32
67109;BME280;54027;50.786;7.058;2023-04-29T00:51:02;100866.13;;;13.13;84.20
67109;BME280;54027;50.786;7.058;2023-04-29T00:53:29;100867.91;;;13.11;83.98
67109;BME280;54027;50.786;7.058;2023-04-29T00:55:55;100867.97;;;13.06;83.60
67109;BME280;54027;50.786;7.058;2023-04-29T00:58:21;100880.13;;;13.06;83.39
67109;BME280;54027;50.786;7.058;2023-04-29T01:00:48;100869.78;;;13.01;82.65
67109;BME280;54027;50.786;7.058;2023-04-29T01:03:14;100871.53;;;12.97;82.33
67109;BME280;54027;50.786;7.058;2023-04-29T01:05:39;100881.97;;;12.96;82.81
67109;BME280;54027;50.786;7.058;2023-04-29T01:08:33;100872.50;;;12.92;81.98
67109;BME280;54027;50.786;7.058;2023-04-29T01:11:10;100872.59;;;12.87;81.95
67109;BME280;54027;50.786;7.058;2023-04-29T01:13:44;100881.25;;;12.86;82.42
67109;BME280;54027;50.786;7.058;2023-04-29T01:16:15;100892.53;;;12.84;82.58
67109;BME280;54027;50.786;7.058;2023-04-29T01:18:56;100884.75;;;12.82;81.75
67109;BME280;54027;50.786;7.058;2023-04-29T01:21:23;100878.75;;;12.80;81.62
67109;BME280;54027;50.786;7.058;2023-04-29T01:23:49;100878.78;;;12.77;80.76
67109;BME280;54027;50.786;7.058;2023-04-29T01:26:23;100890.03;;;12.78;80.93
67109;BME280;54027;50.786;7.058;2023-04-29T01:31:24;100888.41;;;12.71;79.31
67109;BME280;54027;50.786;7.058;2023-04-29T01:39:36;100890.13;;;12.72;77.24
67109;BME280;54027;50.786;7.058;2023-04-29T01:42:33;100889.25;;;12.71;76.22
67109;BME280;54027;50.786;7.058;2023-04-29T01:45:04;100894.44;;;12.73;76.29
67109;BME280;54027;50.786;7.058;2023-04-29T01:47:31;100893.59;;;12.71;76.22
67109;BME280;54027;50.786;7.058;2023-04-29T01:49:57;100893.59;;;12.71;76.48
67109;BME280;54027;50.786;7.058;2023-04-29T01:52:22;100902.28;;;12.70;77.17
67109;BME280;54027;50.786;7.058;2023-04-29T01:54:47;100892.78;;;12.67;77.22
67109;BME280;54027;50.786;7.058;2023-04-29T01:57:13;100900.59;;;12.66;77.71
67109;BME280;54027;50.786;7.058;2023-04-29T01:59:38;100898.03;;;12.64;78.18
67109;BME280;54027;50.786;7.058;2023-04-29T02:02:04;100907.53;;;12.64;78.76
67109;BME280;54027;50.786;7.058;2023-04-29T02:04:29;100901.47;;;12.65;78.75
67109;BME280;54027;50.786;7.058;2023-04-29T02:06:58;100903.25;;;12.61;79.03
67109;BME280;54027;50.786;7.058;2023-04-29T02:09:23;100910.19;;;12.59;79.41
67109;BME280;54027;50.786;7.058;2023-04-29T02:11:48;100908.50;;;12.57;79.35
67109;BME280;54027;50.786;7.058;2023-04-29T02:14:14;100914.59;;;12.54;79.67
67109;BME280;54027;50.786;7.058;2023-04-29T02:16:39;100922.41;;;12.51;79.68
67109;BME280;54027;50.786;7.058;2023-04-29T02:19:08;100917.25;;;12.48;80.22
67109;BME280;54027;50.786;7.058;2023-04-29T02:21:33;100919.91;;;12.43;80.43
67109;BME280;54027;50.786;7.058;2023-04-29T02:23:59;100931.19;;;12.41;80.39
67109;BME280;54027;50.786;7.058;2023-04-29T02:26:24;100929.47;;;12.40;80.93
67109;BME280;54027;50.786;7.058;2023-04-29T02:28:50;100932.13;;;12.37;80.96
67109;BME280;54027;50.786;7.058;2023-04-29T02:31:16;100933.00;;;12.34;81.48
67109;BME280;54027;50.786;7.058;2023-04-29T02:33:42;100933.06;;;12.31;81.59
67109;BME280;54027;50.786;7.058;2023-04-29T02:36:08;100931.34;;;12.29;81.33
67109;BME280;54027;50.786;7.058;2023-04-29T02:38:33;100928.78;;;12.26;81.40
67109;BME280;54027;50.786;7.058;2023-04-29T02:40:58;100932.28;;;12.25;81.79
67109;BME280;54027;50.786;7.058;2023-04-29T02:43:24;100944.41;;;12.21;81.88
67109;BME280;54027;50.786;7.058;2023-04-29T02:45:49;100946.13;;;12.21;82.06
67109;BME280;54027;50.786;7.058;2023-04-29T02:48:14;100945.31;;;12.17;81.96
67109;BME280;54027;50.786;7.058;2023-04-29T02:50:40;100947.94;;;12.16;82.16
67109;BME280;54027;50.786;7.058;2023-04-29T02:53:06;100950.53;;;12.14;82.87
67109;BME280;54027;50.786;7.058;2023-04-29T02:55:31;100947.09;;;12.12;82.98
67109;BME280;54027;50.786;7.058;2023-04-29T02:57:57;100947.97;;;12.11;82.45
67109;BME280;54027;50.786;7.058;2023-04-29T03:00:22;100954.91;;;12.11;82.95
67109;BME280;54027;50.786;7.058;2023-04-29T03:02:48;100954.91;;;12.09;83.06
67109;BME280;54027;50.786;7.058;2023-04-29T03:05:13;100958.38;;;12.08;83.09
67109;BME280;54027;50.786;7.058;2023-04-29T03:07:39;100952.38;;;12.05;82.92
67109;BME280;54027;50.786;7.058;2023-04-29T03:10:05;100954.97;;;12.03;83.22
67109;BME280;54027;50.786;7.058;2023-04-29T03:12:31;100954.16;;;12.01;83.43
67109;BME280;54027;50.786;7.058;2023-04-29T03:14:56;100956.72;;;12.00;83.63
67109;BME280;54027;50.786;7.058;2023-04-29T03:17:22;100955.03;;;11.99;83.53
67109;BME280;54027;50.786;7.058;2023-04-29T03:19:47;100957.66;;;11.94;83.18
67109;BME280;54027;50.786;7.058;2023-04-29T03:22:13;100954.25;;;11.90;83.73
67109;BME280;54027;50.786;7.058;2023-04-29T03:24:38;100960.31;;;11.88;83.86
67109;BME280;54027;50.786;7.058;2023-04-29T03:27:04;100960.34;;;11.86;83.82
67109;BME280;54027;50.786;7.058;2023-04-29T03:29:30;100962.09;;;11.86;83.66
67109;BME280;54027;50.786;7.058;2023-04-29T03:31:56;100967.22;;;11.87;83.99
67109;BME280;54027;50.786;7.058;2023-04-29T03:34:21;100963.81;;;11.87;83.95
67109;BME280;54027;50.786;7.058;2023-04-29T03:36:47;100963.81;;;11.85;83.62
67109;BME280;54027;50.786;7.058;2023-04-29T03:39:12;100964.66;;;11.84;83.51
67109;BME280;54027;50.786;7.058;2023-04-29T03:41:38;100966.44;;;11.82;84.02
67109;BME280;54027;50.786;7.058;2023-04-29T03:44:04;100963.00;;;11.80;83.81
67109;BME280;54027;50.786;7.058;2023-04-29T03:46:30;100967.34;;;11.75;84.49
67109;BME280;54027;50.786;7.058;2023-04-29T03:48:55;100966.53;;;11.72;85.05
67109;BME280;54027;50.786;7.058;2023-04-29T03:51:22;100965.72;;;11.67;85.55
67109;BME280;54027;50.786;7.058;2023-04-29T03:53:48;100966.59;;;11.64;86.10
67109;BME280;54027;50.786;7.058;2023-04-29T03:56:13;100971.88;;;11.57;86.98
67109;BME280;54027;50.786;7.058;2023-04-29T03:58:39;100976.22;;;11.52;87.18
67109;BME280;54027;50.786;7.058;2023-04-29T04:01:04;100979.75;;;11.45;88.06
67109;BME280;54027;50.786;7.058;2023-04-29T04:03:30;100976.31;;;11.38;89.45
67109;BME280;54027;50.786;7.058;2023-04-29T04:05:55;100978.94;;;11.33;90.68
67109;BME280;54027;50.786;7.058;2023-04-29T04:08:20;100983.28;;;11.30;90.93
67109;BME280;54027;50.786;7.058;2023-04-29T04:10:46;100985.88;;;11.25;91.54
67109;BME280;54027;50.786;7.058;2023-04-29T04:13:11;100984.22;;;11.20;91.73
67109;BME280;54027;50.786;7.058;2023-04-29T04:15:37;100996.31;;;11.15;92.10
67109;BME280;54027;50.786;7.058;2023-04-29T04:18:02;100997.22;;;11.11;92.85
67109;BME280;54027;50.786;7.058;2023-04-29T04:20:28;100999.84;;;11.05;94.40
67109;BME280;54027;50.786;7.058;2023-04-29T04:22:53;101004.19;;;10.98;94.29
67109;BME280;54027;50.786;7.058;2023-04-29T04:25:19;100998.19;;;10.93;95.22
67109;BME280;54027;50.786;7.058;2023-04-29T04:27:44;101002.56;;;10.85;95.99
67109;BME280;54027;50.786;7.058;2023-04-29T04:30:10;101002.56;;;10.80;96.43
67109;BME280;54027;50.786;7.058;2023-04-29T04:32:36;101008.59;;;10.81;97.04
67109;BME280;54027;50.786;7.058;2023-04-29T04:35:02;101010.38;;;10.73;97.82
67109;BME280;54027;50.786;7.058;2023-04-29T04:37:28;101021.59;;;10.67;98.07
67109;BME280;54027;50.786;7.058;2023-04-29T04:39:53;101022.47;;;10.66;98.40
67109;BME280;54027;50.786;7.058;2023-04-29T04:42:19;101032.81;;;10.63;98.94
67109;BME280;54027;50.786;7.058;2023-04-29T04:44:44;101041.44;;;10.62;98.84
67109;BME280;54027;50.786;7.058;2023-04-29T04:47:09;101036.25;;;10.62;99.65
67109;BME280;54027;50.786;7.058;2023-04-29T04:49:36;101042.31;;;10.57;99.53
67109;BME280;54027;50.786;7.058;2023-04-29T04:52:01;101050.09;;;10.51;99.69
67109;BME280;54027;50.786;7.058;2023-04-29T04:54:26;101048.41;;;10.42;99.85
67109;BME280;54027;50.786;7.058;2023-04-29T04:56:52;101055.31;;;10.40;99.67
67109;BME280;54027;50.786;7.058;2023-04-29T04:59:17;101051.03;;;10.35;99.41
67109;BME280;54027;50.786;7.058;2023-04-29T05:01:43;101057.94;;;10.33;99.54
67109;BME280;54027;50.786;7.058;2023-04-29T05:04:08;101062.25;;;10.29;99.63
67109;BME280;54027;50.786;7.058;2023-04-29T05:06:34;101071.69;;;10.30;98.79
67109;BME280;54027;50.786;7.058;2023-04-29T05:08:59;101067.41;;;10.28;99.63
67109;BME280;54027;50.786;7.058;2023-04-29T05:11:25;101071.72;;;10.26;99.69
67109;BME280;54027;50.786;7.058;2023-04-29T05:13:50;101076.00;;;10.28;99.84
67109;BME280;54027;50.786;7.058;2023-04-29T05:16:15;101084.63;;;10.27;99.58
67109;BME280;54027;50.786;7.058;2023-04-29T05:18:42;101091.50;;;10.28;99.90
67109;BME280;54027;50.786;7.058;2023-04-29T05:21:09;101091.50;;;10.28;99.33
67109;BME280;54027;50.786;7.058;2023-04-29T05:23:35;101100.13;;;10.32;99.32
67109;BME280;54027;50.786;7.058;2023-04-29T05:26:00;101097.53;;;10.32;100.00
67109;BME280;54027;50.786;7.058;2023-04-29T05:28:25;101094.09;;;10.31;99.52
67109;BME280;54027;50.786;7.058;2023-04-29T05:30:51;101101.00;;;10.29;99.87
67109;BME280;54027;50.786;7.058;2023-04-29T05:33:16;101102.72;;;10.29;100.00
67109;BME280;54027;50.786;7.058;2023-04-29T05:35:42;101103.56;;;10.29;99.77
67109;BME280;54027;50.786;7.058;2023-04-29T05:38:07;101109.59;;;10.28;99.62
67109;BME280;54027;50.786;7.058;2023-04-29T05:40:33;101110.47;;;10.29;99.42
67109;BME280;54027;50.786;7.058;2023-04-29T05:42:58;101123.38;;;10.32;99.10
67109;BME280;54027;50.786;7.058;2023-04-29T05:45:24;101120.78;;;10.32;98.96
67109;BME280;54027;50.786;7.058;2023-04-29T05:47:49;101119.06;;;10.28;97.67
67109;BME280;54027;50.786;7.058;2023-04-29T05:50:15;101128.53;;;10.30;98.30
67109;BME280;54027;50.786;7.058;2023-04-29T05:52:40;101125.13;;;10.33;97.96
67109;BME280;54027;50.786;7.058;2023-04-29T05:55:06;101133.72;;;10.32;96.95
67109;BME280;54027;50.786;7.058;2023-04-29T05:57:31;101131.09;;;10.33;96.77
67109;BME280;54027;50.786;7.058;2023-04-29T05:59:57;101135.41;;;10.36;96.43
67109;BME280;54027;50.786;7.058;2023-04-29T06:02:24;101140.59;;;10.43;97.03
67109;BME280;54027;50.786;7.058;2023-04-29T06:04:49;101149.19;;;10.45;97.07
67109;BME280;54027;50.786;7.058;2023-04-29T06:07:15;101143.16;;;10.43;97.93
67109;BME280;54027;50.786;7.058;2023-04-29T06:09:41;101150.06;;;10.44;97.31
67109;BME280;54027;50.786;7.058;2023-04-29T06:12:07;101156.94;;;10.45;97.83
67109;BME280;54027;50.786;7.058;2023-04-29T06:14:33;101154.34;;;10.42;96.94
67109;BME280;54027;50.786;7.058;2023-04-29T06:16:58;101168.16;;;10.43;96.85
67109;BME280;54027;50.786;7.058;2023-04-29T06:19:23;101163.84;;;10.43;96.62
67109;BME280;54027;50.786;7.058;2023-04-29T06:21:49;101170.75;;;10.44;96.09
67109;BME280;54027;50.786;7.058;2023-04-29T06:24:15;101175.91;;;10.50;96.80
67109;BME280;54027;50.786;7.058;2023-04-29T06:26:40;101175.88;;;10.52;96.27
67109;BME280;54027;50.786;7.058;2023-04-29T06:29:05;101181.91;;;10.54;95.27
67109;BME280;54027;50.786;7.058;2023-04-29T06:31:31;101183.66;;;10.53;95.35
67109;BME280;54027;50.786;7.058;2023-04-29T06:33:56;101181.06;;;10.53;94.90
67109;BME280;54027;50.786;7.058;2023-04-29T06:36:22;101181.91;;;10.54;95.00
67109;BME280;54027;50.786;7.058;2023-04-29T06:38:47;101194.84;;;10.55;94.73
67109;BME280;54027;50.786;7.058;2023-04-29T06:41:12;101190.50;;;10.57;95.19
67109;BME280;54027;50.786;7.058;2023-04-29T06:43:38;101194.84;;;10.58;93.98
67109;BME280;54027;50.786;7.058;2023-04-29T06:46:03;101191.41;;;10.59;94.04
67109;BME280;54027;50.786;7.058;2023-04-29T06:48:32;101196.53;;;10.62;93.55
67109;BME280;54027;50.786;7.058;2023-04-29T06:50:57;101201.72;;;10.64;93.93
67109;BME280;54027;50.786;7.058;2023-04-29T06:53:24;101201.72;;;10.67;93.47
67109;BME280;54027;50.786;7.058;2023-04-29T06:55:49;101200.88;;;10.65;92.73
67109;BME280;54027;50.786;7.058;2023-04-29T06:58:16;101209.47;;;10.67;92.22
67109;BME280;54027;50.786;7.058;2023-04-29T07:00:45;101208.63;;;10.68;91.67
67109;BME280;54027;50.786;7.058;2023-04-29T07:03:11;101205.13;;;10.72;90.85
67109;BME280;54027;50.786;7.058;2023-04-29T07:05:37;101216.34;;;10.78;91.43
67109;BME280;54027;50.786;7.058;2023-04-29T07:08:11;101221.50;;;10.83;90.64
67109;BME280;54027;50.786;7.058;2023-04-29T07:10:36;101228.41;;;10.89;90.08
67109;BME280;54027;50.786;7.058;2023-04-29T07:13:02;101225.81;;;10.92;90.79
67109;BME280;54027;50.786;7.058;2023-04-29T07:15:28;101232.69;;;10.91;90.04
67109;BME280;54027;50.786;7.058;2023-04-29T07:17:55;101238.72;;;10.95;89.71
67109;BME280;54027;50.786;7.058;2023-04-29T07:20:20;101239.56;;;10.95;90.29
67109;BME280;54027;50.786;7.058;2023-04-29T07:22:46;101238.72;;;11.01;89.94
67109;BME280;54027;50.786;7.058;2023-04-29T07:25:11;101246.47;;;11.04;89.56
67109;BME280;54027;50.786;7.058;2023-04-29T07:27:37;101248.19;;;11.03;90.03
67109;BME280;54027;50.786;7.058;2023-04-29T07:30:03;101251.66;;;11.01;89.22
67109;BME280;54027;50.786;7.058;2023-04-29T07:32:29;101255.94;;;11.02;88.79
67109;BME280;54027;50.786;7.058;2023-04-29T07:34:58;101258.50;;;11.08;89.07
67109;BME280;54027;50.786;7.058;2023-04-29T07:37:24;101261.09;;;11.09;88.64
67109;BME280;54027;50.786;7.058;2023-04-29T07:39:49;101260.22;;;11.13;88.59
67109;BME280;54027;50.786;7.058;2023-04-29T07:42:15;101261.94;;;11.17;88.40
67109;BME280;54027;50.786;7.058;2023-04-29T07:44:40;101256.75;;;11.20;87.47
67109;BME280;54027;50.786;7.058;2023-04-29T07:47:06;101256.72;;;11.22;87.83
67109;BME280;54027;50.786;7.058;2023-04-29T07:49:31;101254.16;;;11.26;87.40
67109;BME280;54027;50.786;7.058;2023-04-29T07:51:57;101261.88;;;11.28;87.26
67109;BME280;54027;50.786;7.058;2023-04-29T07:54:22;101260.97;;;11.40;87.11
67109;BME280;54027;50.786;7.058;2023-04-29T07:56:48;101266.13;;;11.59;86.93
67109;BME280;54027;50.786;7.058;2023-04-29T07:59:13;101263.44;;;11.80;86.63
67109;BME280;54027;50.786;7.058;2023-04-29T08:01:41;101259.91;;;11.95;83.94
67109;BME280;54027;50.786;7.058;2023-04-29T08:04:07;101263.25;;;12.11;82.41
67109;BME280;54027;50.786;7.058;2023-04-29T08:06:33;101259.69;;;12.24;81.56
67109;BME280;54027;50.786;7.058;2023-04-29T08:08:59;101259.59;;;12.36;80.72
67109;BME280;54027;50.786;7.058;2023-04-29T08:11:24;101273.31;;;12.52;80.53
67109;BME280;54027;50.786;7.058;2023-04-29T08:13:51;101262.84;;;12.59;79.39
67109;BME280;54027;50.786;7.058;2023-04-29T08:16:17;101262.81;;;12.65;79.41
67109;BME280;54027;50.786;7.058;2023-04-29T08:18:42;101268.84;;;12.66;79.14
67109;BME280;54027;50.786;7.058;2023-04-29T08:21:08;101265.28;;;12.79;79.00
67109;BME280;54027;50.786;7.058;2023-04-29T08:23:36;101270.41;;;12.88;78.00
67109;BME280;54027;50.786;7.058;2023-04-29T08:26:02;101271.44;;;12.69;77.73
67109;BME280;54027;50.786;7.058;2023-04-29T08:28:27;101285.34;;;12.57;79.38
67109;BME280;54027;50.786;7.058;2023-04-29T08:30:53;101291.38;;;12.59;79.44
67109;BME280;54027;50.786;7.058;2023-04-29T08:33:19;101280.91;;;12.73;77.87
67109;BME280;54027;50.786;7.058;2023-04-29T08:35:44;101274.00;;;12.72;77.30
67109;BME280;54027;50.786;7.058;2023-04-29T08:38:10;101293.88;;;12.73;78.94
67109;BME280;54027;50.786;7.058;2023-04-29T08:40:40;101286.22;;;12.58;77.65
67109;BME280;54027;50.786;7.058;2023-04-29T08:43:06;101292.38;;;12.41;77.77
67109;BME280;54027;50.786;7.058;2023-04-29T08:45:34;101308.06;;;12.26;79.55
67109;BME280;54027;50.786;7.058;2023-04-29T08:48:01;101305.53;;;12.19;80.36
67109;BME280;54027;50.786;7.058;2023-04-29T08:50:28;101308.19;;;12.07;80.09
67109;BME280;54027;50.786;7.058;2023-04-29T08:52:54;101317.72;;;12.02;80.86
67109;BME280;54027;50.786;7.058;2023-04-29T08:55:20;101316.88;;;11.95;80.94
67109;BME280;54027;50.786;7.058;2023-04-29T08:57:48;101318.63;;;11.88;80.61
67109;BME280;54027;50.786;7.058;2023-04-29T09:00:14;101320.38;;;11.88;80.60
67109;BME280;54027;50.786;7.058;2023-04-29T09:02:44;101322.94;;;11.91;80.61
67109;BME280;54027;50.786;7.058;2023-04-29T09:05:10;101318.59;;;11.96;79.96
67109;BME280;54027;50.786;7.058;2023-04-29T09:07:40;101321.16;;;11.99;79.59
67109;BME280;54027;50.786;7.058;2023-04-29T09:10:06;101313.38;;;12.04;79.42
67109;BME280;54027;50.786;7.058;2023-04-29T09:12:32;101313.38;;;12.02;78.80
67109;BME280;54027;50.786;7.058;2023-04-29T09:14:57;101323.75;;;12.04;79.08
67109;BME280;54027;50.786;7.058;2023-04-29T09:17:43;101319.41;;;12.10;78.00
67109;BME280;54027;50.786;7.058;2023-04-29T09:22:48;101314.97;;;12.24;76.35
67109;BME280;54027;50.786;7.058;2023-04-29T09:25:14;101318.44;;;12.25;76.42
67109;BME280;54027;50.786;7.058;2023-04-29T09:27:40;101326.19;;;12.31;76.21
67109;BME280;54027;50.786;7.058;2023-04-29T09:30:06;101314.00;;;12.39;75.74
67109;BME280;54027;50.786;7.058;2023-04-29T09:32:31;101319.06;;;12.57;75.63
67109;BME280;54027;50.786;7.058;2023-04-29T09:34:57;101298.91;;;12.89;74.59
67109;BME280;54027;50.786;7.058;2023-04-29T09:37:24;101280.41;;;13.24;72.58
67109;BME280;54027;50.786;7.058;2023-04-29T09:39:50;101272.22;;;13.59;71.12
67109;BME280;54027;50.786;7.058;2023-04-29T09:42:15;101264.91;;;13.87;69.64
67109;BME280;54027;50.786;7.058;2023-04-29T09:44:42;101264.28;;;14.28;69.51
67109;BME280;54027;50.786;7.058;2023-04-29T09:47:08;101269.38;;;14.35;68.46
67109;BME280;54027;50.786;7.058;2023-04-29T09:49:36;101263.28;;;14.39;67.79
67109;BME280;54027;50.786;7.058;2023-04-29T09:52:09;101272.84;;;14.36;68.04
67109;BME280;54027;50.786;7.058;2023-04-29T09:54:36;101289.50;;;14.24;68.71
67109;BME280;54027;50.786;7.058;2023-04-29T09:57:07;101277.28;;;14.29;67.98
67109;BME280;54027;50.786;7.058;2023-04-29T09:59:34;101291.53;;;14.01;68.01
67109;BME280;54027;50.786;7.058;2023-04-29T10:02:01;101299.66;;;13.78;68.90
67109;BME280;54027;50.786;7.058;2023-04-29T10:04:32;101314.38;;;13.78;69.09
67109;BME280;54027;50.786;7.058;2023-04-29T10:06:59;101329.41;;;13.54;69.82
67109;BME280;54027;50.786;7.058;2023-04-29T10:09:25;101340.78;;;13.43;70.30
67109;BME280;54027;50.786;7.058;2023-04-29T10:11:52;101329.41;;;13.54;70.14
67109;BME280;54027;50.786;7.058;2023-04-29T10:14:21;101326.88;;;13.48;69.47
67109;BME280;54027;50.786;7.058;2023-04-29T10:17:19;101362.22;;;13.60;70.89
67109;BME280;54027;50.786;7.058;2023-04-29T10:20:05;101328.34;;;13.71;69.30
67109;BME280;54027;50.786;7.058;2023-04-29T10:22:52;101351.78;;;13.66;70.26
67109;BME280;54027;50.786;7.058;2023-04-29T10:25:20;101346.53;;;13.69;69.98
67109;BME280;54027;50.786;7.058;2023-04-29T10:27:46;101338.00;;;13.61;69.56
67109;BME280;54027;50.786;7.058;2023-04-29T10:30:14;101334.59;;;13.54;68.83
67109;BME280;54027;50.786;7.058;2023-04-29T10:32:41;101350.22;;;13.53;69.45
67109;BME280;54027;50.786;7.058;2023-04-29T10:35:09;101349.41;;;13.45;69.85
67109;BME280;54027;50.786;7.058;2023-04-29T10:37:36;101368.56;;;13.33;70.67
67109;BME280;54027;50.786;7.058;2023-04-29T10:42:48;101376.50;;;13.18;71.35
67109;BME280;54027;50.786;7.058;2023-04-29T10:50:31;101390.47;;;13.07;72.63
67109;BME280;54027;50.786;7.058;2023-04-29T10:52:57;101391.28;;;13.13;72.55
67109;BME280;54027;50.786;7.058;2023-04-29T10:55:25;101379.09;;;13.21;71.92
67109;BME280;54027;50.786;7.058;2023-04-29T10:57:57;101371.31;;;13.20;71.84
67109;BME280;54027;50.786;7.058;2023-04-29T11:00:27;101390.34;;;13.19;72.05
67109;BME280;54027;50.786;7.058;2023-04-29T11:02:53;101388.69;;;13.15;72.25
67109;BME280;54027;50.786;7.058;2023-04-29T11:05:35;101391.38;;;13.01;72.17
67109;BME280;54027;50.786;7.058;2023-04-29T11:08:10;101404.38;;;12.96;72.72
67109;BME280;54027;50.786;7.058;2023-04-29T11:10:41;101410.50;;;12.86;73.24
67109;BME280;54027;50.786;7.058;2023-04-29T11:13:27;101416.59;;;12.81;74.28
67109;BME280;54027;50.786;7.058;2023-04-29T11:16:03;101415.75;;;12.79;74.72
67109;BME280;54027;50.786;7.058;2023-04-29T11:18:29;101414.00;;;12.81;74.54
67109;BME280;54027;50.786;7.058;2023-04-29T11:23:36;101415.69;;;12.86;74.49
67109;BME280;54027;50.786;7.058;2023-04-29T11:26:03;101411.38;;;12.87;74.48
67109;BME280;54027;50.786;7.058;2023-04-29T11:28:30;101409.66;;;12.84;74.60
67109;BME280;54027;50.786;7.058;2023-04-29T11:30:56;101416.56;;;12.82;75.00
67109;BME280;54027;50.786;7.058;2023-04-29T11:33:25;101420.13;;;12.72;75.17
67109;BME280;54027;50.786;7.058;2023-04-29T11:35:54;101425.31;;;12.72;75.54
67109;BME280;54027;50.786;7.058;2023-04-29T11:38:26;101426.19;;;12.70;75.73
67109;BME280;54027;50.786;7.058;2023-04-29T11:40:53;101436.59;;;12.64;76.38
67109;BME280;54027;50.786;7.058;2023-04-29T11:43:19;101435.72;;;12.63;76.92
67109;BME280;54027;50.786;7.058;2023-04-29T11:45:45;101429.69;;;12.60;77.78
67109;BME280;54027;50.786;7.058;2023-04-29T11:48:24;101428.81;;;12.67;77.57
67109;BME280;54027;50.786;7.058;2023-04-29T11:50:52;101428.81;;;12.64;77.37
67109;BME280;54027;50.786;7.058;2023-04-29T11:53:23;101431.44;;;12.56;78.10
67109;BME280;54027;50.786;7.058;2023-04-29T11:55:51;101435.75;;;12.60;77.68
67109;BME280;54027;50.786;7.058;2023-04-29T11:58:19;101433.09;;;12.68;77.50
67109;BME280;54027;50.786;7.058;2023-04-29T12:00:46;101437.44;;;12.66;77.39
67109;BME280;54027;50.786;7.058;2023-04-29T12:03:19;101436.56;;;12.68;77.29
67109;BME280;54027;50.786;7.058;2023-04-29T12:05:53;101440.97;;;12.54;78.44
67109;BME280;54027;50.786;7.058;2023-04-29T12:08:19;101437.53;;;12.55;78.26
67109;BME280;54027;50.786;7.058;2023-04-29T12:10:46;101453.94;;;12.51;78.29
67109;BME280;54027;50.786;7.058;2023-04-29T12:13:12;101458.31;;;12.44;79.15
67109;BME280;54027;50.786;7.058;2023-04-29T12:15:38;101447.03;;;12.55;79.30
67109;BME280;54027;50.786;7.058;2023-04-29T12:18:03;101447.91;;;12.55;78.31
67109;BME280;54027;50.786;7.058;2023-04-29T12:20:29;101440.97;;;12.53;78.91
67109;BME280;54027;50.786;7.058;2023-04-29T12:22:55;101444.47;;;12.47;79.02
67109;BME280;54027;50.786;7.058;2023-04-29T12:25:24;101447.97;;;12.43;79.08
67109;BME280;54027;50.786;7.058;2023-04-29T12:27:50;101449.66;;;12.45;79.26
67109;BME280;54027;50.786;7.058;2023-04-29T12:30:16;101452.25;;;12.45;79.44
67109;BME280;54027;50.786;7.058;2023-04-29T12:32:41;101451.34;;;12.53;79.66
67109;BME280;54027;50.786;7.058;2023-04-29T12:35:16;101453.06;;;12.54;79.14
67109;BME280;54027;50.786;7.058;2023-04-29T12:37:42;101452.19;;;12.58;79.25
67109;BME280;54027;50.786;7.058;2023-04-29T12:40:12;101453.94;;;12.54;78.55
67109;BME280;54027;50.786;7.058;2023-04-29T12:42:40;101457.34;;;12.59;78.76
67109;BME280;54027;50.786;7.058;2023-04-29T12:45:05;101446.94;;;12.65;78.68
67109;BME280;54027;50.786;7.058;2023-04-29T12:47:31;101453.81;;;12.74;78.65
67109;BME280;54027;50.786;7.058;2023-04-29T12:50:01;101452.94;;;12.78;78.46
67109;BME280;54027;50.786;7.058;2023-04-29T12:52:26;101453.78;;;12.80;78.45
67109;BME280;54027;50.786;7.058;2023-04-29T12:54:51;101455.53;;;12.78;77.72
67109;BME280;54027;50.786;7.058;2023-04-29T12:57:17;101462.38;;;12.86;77.65
67109;BME280;54027;50.786;7.058;2023-04-29T12:59:42;101453.69;;;12.99;77.21
67109;BME280;54027;50.786;7.058;2023-04-29T13:02:08;101446.53;;;13.24;76.28
67109;BME280;54027;50.786;7.058;2023-04-29T13:04:33;101441.88;;;13.60;76.04
67109;BME280;54027;50.786;7.058;2023-04-29T13:06:58;101422.25;;;14.10;73.95
67109;BME280;54027;50.786;7.058;2023-04-29T13:09:27;101409.72;;;14.44;71.71